createdAt,value
2022-08-01T00:02:56.654Z,1.00
2022-08-01T00:07:55.413Z,0.80
2022-08-01T00:12:54.220Z,1.00
2022-08-01T00:17:53.008Z,0.80
2022-08-01T00:22:53.095Z,0.80
2022-08-01T00:27:51.950Z,0.95
2022-08-01T00:32:52.338Z,1.60
2022-08-01T00:37:52.682Z,1.00
2022-08-01T00:42:51.446Z,1.02
2022-08-01T00:47:55.375Z,0.70
2022-08-01T00:52:56.836Z,0.80
2022-08-01T00:58:04.655Z,1.13
2022-08-01T01:03:05.064Z,1.13
2022-08-01T01:08:16.026Z,0.80
2022-08-01T01:13:22.769Z,0.90
2022-08-01T01:18:26.534Z,0.88
2022-08-01T01:23:40.972Z,1.30
2022-08-01T01:29:02.831Z,1.20
2022-08-01T01:34:05.373Z,0.80
2022-08-01T01:39:04.377Z,0.80
2022-08-01T01:44:05.979Z,1.00
2022-08-01T01:49:06.109Z,1.02
2022-08-01T01:54:07.935Z,0.82
2022-08-01T01:59:08.164Z,0.80
2022-08-01T02:04:07.986Z,0.93
2022-08-01T02:09:09.348Z,0.93
2022-08-01T02:14:11.639Z,1.17
2022-08-01T02:19:12.080Z,0.70
2022-08-01T02:24:16.040Z,0.90
2022-08-01T02:29:30.172Z,1.00
2022-08-01T02:34:33.446Z,1.10
2022-08-01T02:39:34.161Z,1.00
2022-08-01T02:44:39.596Z,0.90
2022-08-01T02:49:44.241Z,1.08
2022-08-01T02:54:47.105Z,1.40
2022-08-01T02:59:49.062Z,1.48
2022-08-01T03:04:53.946Z,1.30
2022-08-01T03:09:56.289Z,1.20
2022-08-01T03:14:58.960Z,0.98
2022-08-01T03:20:00.649Z,1.50
2022-08-01T03:25:01.118Z,1.20
2022-08-01T03:30:06.041Z,1.67
2022-08-01T03:35:05.490Z,1.20
2022-08-01T03:40:09.875Z,1.27
2022-08-01T03:45:13.702Z,1.50
2022-08-01T03:50:14.259Z,1.10
2022-08-01T03:55:15.097Z,1.00
2022-08-01T04:00:19.568Z,1.05
2022-08-01T04:05:19.112Z,1.10
2022-08-01T04:10:18.587Z,1.35
2022-08-01T04:15:18.927Z,1.35
2022-08-01T04:20:17.906Z,1.20
2022-08-01T04:25:23.909Z,1.42
2022-08-01T04:30:29.294Z,1.20
2022-08-01T04:36:01.706Z,1.90
2022-08-01T04:40:52.325Z,1.30
2022-08-01T04:45:53.758Z,1.38
2022-08-01T04:50:52.672Z,1.40
2022-08-01T04:55:51.715Z,1.77
2022-08-01T05:00:50.501Z,1.70
2022-08-01T05:05:50.674Z,1.30
2022-08-01T05:10:49.402Z,1.08
2022-08-01T05:15:48.200Z,2.15
2022-08-01T05:20:48.448Z,1.02
2022-08-01T05:25:58.013Z,1.67
2022-08-01T05:30:57.881Z,1.30
2022-08-01T05:35:56.665Z,1.60
2022-08-01T05:40:56.882Z,1.20
2022-08-01T05:45:55.841Z,1.17
2022-08-01T05:50:58.699Z,1.15
2022-08-01T05:55:59.080Z,1.15
2022-08-01T06:00:57.874Z,1.00
2022-08-01T06:05:56.584Z,1.00
2022-08-01T06:10:55.692Z,0.90
2022-08-01T06:15:55.839Z,1.33
2022-08-01T06:20:54.550Z,1.55
2022-08-01T06:25:55.228Z,1.27
2022-08-01T06:30:55.549Z,0.90
2022-08-01T06:35:54.375Z,0.95
2022-08-01T06:40:53.353Z,0.70
2022-08-01T06:45:52.197Z,1.65
2022-08-01T06:51:09.140Z,0.80
2022-08-01T06:56:09.750Z,1.23
2022-08-01T07:01:09.333Z,1.10
2022-08-01T07:06:09.574Z,1.02
2022-08-01T07:11:08.507Z,1.40
2022-08-01T07:16:07.355Z,1.25
2022-08-01T07:21:06.029Z,1.60
2022-08-01T07:26:17.172Z,1.60
2022-08-01T07:31:16.201Z,1.98
2022-08-01T07:36:14.952Z,1.83
2022-08-01T07:41:13.789Z,2.55
2022-08-01T07:46:13.989Z,2.20
2022-08-01T07:51:13.224Z,2.72
2022-08-01T07:56:11.965Z,2.83
2022-08-01T08:01:10.811Z,3.22
2022-08-01T08:06:10.949Z,3.30
2022-08-01T08:11:09.697Z,3.72
2022-08-01T08:16:08.950Z,4.03
2022-08-01T08:21:07.738Z,3.50
2022-08-01T08:26:08.231Z,4.00
2022-08-01T08:31:07.126Z,3.10
2022-08-01T08:36:06.705Z,3.00
2022-08-01T08:41:08.323Z,4.63
2022-08-01T08:46:09.725Z,3.47
2022-08-01T08:51:11.504Z,3.70
2022-08-01T08:56:14.387Z,3.47
2022-08-01T09:01:13.885Z,3.00
2022-08-01T09:06:13.254Z,2.75
2022-08-01T09:11:23.159Z,2.58
2022-08-01T09:16:23.879Z,1.95
2022-08-01T09:26:34.031Z,2.38
2022-08-01T09:31:42.454Z,1.42
2022-08-01T09:36:54.221Z,2.38
2022-08-01T09:41:56.482Z,1.60
2022-08-01T09:46:59.457Z,1.63
2022-08-01T09:52:15.453Z,2.03
2022-08-01T09:57:18.220Z,2.17
2022-08-01T10:29:24.297Z,6.85
2022-08-01T10:34:27.261Z,2.55
2022-08-01T10:39:31.055Z,3.28
2022-08-01T10:44:34.288Z,3.65
2022-08-01T10:49:38.743Z,3.92
2022-08-01T10:54:52.518Z,3.38
2022-08-01T11:00:01.003Z,2.70
2022-08-01T11:05:04.723Z,3.70
2022-08-01T11:10:14.535Z,3.08
2022-08-01T11:15:31.095Z,3.92
2022-08-01T11:20:32.590Z,2.63
2022-08-01T11:26:10.644Z,2.97
2022-08-01T11:31:37.044Z,2.35
2022-08-01T11:36:57.472Z,1.63
2022-08-01T11:41:55.882Z,2.30
2022-08-01T11:47:08.588Z,2.50
2022-08-01T11:52:10.681Z,1.60
2022-08-01T11:57:12.825Z,1.42
2022-08-01T12:02:30.538Z,1.15
2022-08-01T12:07:31.925Z,1.00
2022-08-01T12:12:35.498Z,0.77
2022-08-01T12:17:37.561Z,0.88
2022-08-01T12:22:37.182Z,0.90
2022-08-01T12:32:39.858Z,0.70
2022-08-01T12:37:45.198Z,0.80
2022-08-01T12:42:47.837Z,0.98
2022-08-01T12:47:50.061Z,0.88
2022-08-01T12:52:50.315Z,0.77
2022-08-01T12:57:52.795Z,0.60
2022-08-01T13:03:02.736Z,0.82
2022-08-01T13:08:06.931Z,1.10
2022-08-01T13:13:06.317Z,1.23
2022-08-01T13:18:26.610Z,1.00
2022-08-01T13:24:03.085Z,1.17
2022-08-01T13:28:44.500Z,0.75
2022-08-01T13:33:59.934Z,0.98
2022-08-01T13:39:17.027Z,0.80
2022-08-01T13:44:16.296Z,0.82
2022-08-01T13:49:16.821Z,0.63
2022-08-01T13:54:16.173Z,1.08
2022-08-01T13:59:15.457Z,0.80
2022-08-01T14:04:14.617Z,0.65
2022-08-01T14:09:24.407Z,1.23
2022-08-01T14:14:23.776Z,0.75
2022-08-01T14:19:38.475Z,0.95
2022-08-01T14:24:40.072Z,1.73
2022-08-01T14:30:01.146Z,1.75
2022-08-01T14:34:59.671Z,1.50
2022-08-01T14:40:01.577Z,1.05
2022-08-01T14:45:01.446Z,2.50
2022-08-01T14:50:00.305Z,1.50
2022-08-01T14:55:00.620Z,1.90
2022-08-01T14:59:59.727Z,1.05
2022-08-01T15:04:58.686Z,1.52
2022-08-01T15:09:57.547Z,1.15
2022-08-01T15:14:58.905Z,0.95
2022-08-01T15:19:59.037Z,1.23
2022-08-01T15:24:59.911Z,1.02
2022-08-01T15:30:00.071Z,1.58
2022-08-01T15:34:58.893Z,1.25
2022-08-01T15:39:57.662Z,1.42
2022-08-01T15:44:56.525Z,1.77
2022-08-01T15:50:00.511Z,1.33
2022-08-01T15:55:01.868Z,1.75
2022-08-01T16:00:00.626Z,2.40
2022-08-01T16:05:00.857Z,2.53
2022-08-01T16:09:59.633Z,1.83
2022-08-01T16:14:58.560Z,2.13
2022-08-01T16:19:57.437Z,2.67
2022-08-01T16:25:00.727Z,1.50
2022-08-01T16:29:59.831Z,3.05
2022-08-01T16:34:58.612Z,2.77
2022-08-01T16:39:59.155Z,3.10
2022-08-01T16:45:02.086Z,3.58
2022-08-01T16:50:09.706Z,1.95
2022-08-01T16:55:11.407Z,2.08
2022-08-01T17:00:20.836Z,2.72
2022-08-01T17:10:20.524Z,5.20
2022-08-01T17:20:17.870Z,2.15
2022-08-01T17:25:17.992Z,2.78
2022-08-01T17:30:18.124Z,2.00
2022-08-01T17:35:17.831Z,2.50
2022-08-01T17:40:38.955Z,1.83
2022-08-01T17:45:50.307Z,1.85
2022-08-01T17:50:51.988Z,2.25
2022-08-01T17:55:53.384Z,2.33
2022-08-01T18:00:57.255Z,2.33
2022-08-01T18:05:56.119Z,2.35
2022-08-01T18:10:55.642Z,2.72
2022-08-01T18:15:54.408Z,1.95
2022-08-01T18:20:56.469Z,2.10
2022-08-01T18:25:56.644Z,2.03
2022-08-01T18:30:57.299Z,2.28
2022-08-01T18:36:03.753Z,2.70
2022-08-01T18:41:03.508Z,2.88
2022-08-01T18:46:04.248Z,2.78
2022-08-01T18:51:04.519Z,2.67
2022-08-01T18:56:11.910Z,2.90
2022-08-01T19:01:10.918Z,2.45
2022-08-01T19:06:11.310Z,2.10
2022-08-01T19:11:10.056Z,2.58
2022-08-01T19:16:08.834Z,2.33
2022-08-01T19:21:07.677Z,2.35
2022-08-01T19:26:12.733Z,2.85
2022-08-01T19:31:13.225Z,2.50
2022-08-01T19:36:18.620Z,2.33
2022-08-01T19:41:19.894Z,3.40
2022-08-01T19:46:18.771Z,2.28
2022-08-01T19:51:18.388Z,2.78
2022-08-01T19:56:20.869Z,2.25
2022-08-01T20:01:20.656Z,2.20
2022-08-01T20:06:20.257Z,2.40
2022-08-01T20:11:24.706Z,2.90
2022-08-01T20:16:24.007Z,3.13
2022-08-01T20:21:24.942Z,2.45
2022-08-01T20:26:28.236Z,2.72
2022-08-01T20:31:33.953Z,2.53
2022-08-01T20:36:42.787Z,2.50
2022-08-01T20:41:59.745Z,3.13
2022-08-01T20:47:01.238Z,3.75
2022-08-01T20:52:00.155Z,2.80
2022-08-01T20:57:17.115Z,3.13
2022-08-01T21:02:31.942Z,3.08
2022-08-01T21:07:35.419Z,2.72
2022-08-01T21:12:45.015Z,3.83
2022-08-01T21:17:47.630Z,3.90
2022-08-01T21:22:57.318Z,3.40
2022-08-01T21:27:57.639Z,2.83
2022-08-01T21:32:57.025Z,3.20
2022-08-01T21:37:59.762Z,3.10
2022-08-01T21:43:02.057Z,5.50
2022-08-01T21:48:01.162Z,5.60
2022-08-01T21:53:11.474Z,5.57
2022-08-01T21:58:24.175Z,3.70
2022-08-01T22:03:26.437Z,3.53
2022-08-01T22:08:34.521Z,3.15
2022-08-01T22:13:36.467Z,3.53
2022-08-01T22:18:37.623Z,4.00
2022-08-01T22:23:38.216Z,3.38
2022-08-01T22:28:39.610Z,4.17
2022-08-01T22:38:37.879Z,3.72
2022-08-01T22:43:43.139Z,3.45
2022-08-01T22:48:47.641Z,3.00
2022-08-01T22:53:54.614Z,3.30
2022-08-01T22:58:57.659Z,2.88
2022-08-01T23:04:00.413Z,2.72
2022-08-01T23:09:01.546Z,3.10
2022-08-01T23:14:03.745Z,3.65
2022-08-01T23:19:03.702Z,3.20
2022-08-01T23:24:03.304Z,3.30
2022-08-01T23:29:04.244Z,3.60
2022-08-01T23:34:03.073Z,4.65
2022-08-01T23:39:02.036Z,3.22
2022-08-01T23:44:00.799Z,3.28
2022-08-01T23:49:02.280Z,3.33
2022-08-01T23:54:01.084Z,2.95
2022-08-01T23:58:59.865Z,3.40
